createdAt,value
2022-12-08T00:00:05.629Z,102194.63
2022-12-08T00:02:40.181Z,102221.41
2022-12-08T00:05:29.050Z,102226.09
2022-12-08T00:08:16.095Z,102230.81
2022-12-08T00:10:49.942Z,102237.63
2022-12-08T00:13:18.703Z,102210.50
2022-12-08T00:15:47.278Z,102230.53
2022-12-08T00:18:16.007Z,102236.63
2022-12-08T00:20:44.834Z,102235.94
2022-12-08T00:23:14.155Z,102191.34
2022-12-08T00:25:42.737Z,102234.66
2022-12-08T00:28:11.752Z,102206.09
2022-12-08T00:30:43.778Z,102247.94
2022-12-08T00:33:15.084Z,102233.47
2022-12-08T00:35:43.794Z,102214.34
2022-12-08T00:38:12.838Z,102202.41
2022-12-08T00:40:48.498Z,102239.78
2022-12-08T00:43:17.493Z,102214.75
2022-12-08T00:45:46.128Z,102235.16
2022-12-08T00:48:15.127Z,102203.94
2022-12-08T00:50:44.077Z,102204.47
2022-12-08T00:53:12.652Z,102247.09
2022-12-08T00:55:42.008Z,102201.34
2022-12-08T00:58:10.816Z,102228.81
2022-12-08T01:00:42.674Z,102195.69
2022-12-08T01:03:12.656Z,102213.03
2022-12-08T01:05:41.420Z,102184.84
2022-12-08T01:08:10.208Z,102228.22
2022-12-08T01:10:40.475Z,102233.75
2022-12-08T01:13:09.299Z,102243.19
2022-12-08T01:15:38.596Z,102246.28
2022-12-08T01:18:07.273Z,102227.31
2022-12-08T01:20:35.920Z,102230.19
2022-12-08T01:23:04.536Z,102249.84
2022-12-08T01:25:36.195Z,102252.22
2022-12-08T01:28:05.087Z,102230.03
2022-12-08T01:30:34.037Z,102215.75
2022-12-08T01:33:02.734Z,102248.66
2022-12-08T01:35:31.566Z,102209.00
2022-12-08T01:38:00.356Z,102217.19
2022-12-08T01:40:29.074Z,102245.09
2022-12-08T01:42:57.675Z,102210.38
2022-12-08T01:45:29.733Z,102218.81
2022-12-08T01:48:09.038Z,102213.13
2022-12-08T01:50:40.906Z,102211.50
2022-12-08T01:53:17.919Z,102232.91
2022-12-08T01:56:00.506Z,102204.72
2022-12-08T01:58:53.719Z,102201.53
2022-12-08T02:01:22.954Z,102233.38
2022-12-08T02:03:59.747Z,102236.25
2022-12-08T02:06:39.328Z,102224.66
2022-12-08T02:09:09.001Z,102216.59
2022-12-08T02:11:37.854Z,102199.28
2022-12-08T02:14:09.517Z,102245.81
2022-12-08T02:17:03.059Z,102203.25
2022-12-08T02:20:05.813Z,102227.03
2022-12-08T02:22:49.498Z,102142.63
2022-12-08T02:25:33.359Z,102234.25
2022-12-08T02:28:11.279Z,102230.31
2022-12-08T02:31:11.584Z,102218.88
2022-12-08T02:33:46.084Z,102240.38
2022-12-08T02:36:22.982Z,102202.50
2022-12-08T02:39:04.208Z,102190.75
2022-12-08T02:41:45.969Z,102184.66
2022-12-08T02:44:29.143Z,102232.00
2022-12-08T02:47:13.394Z,102224.69
2022-12-08T02:49:42.492Z,102221.84
2022-12-08T02:52:16.392Z,102241.72
2022-12-08T02:54:51.683Z,102243.66
2022-12-08T02:57:47.878Z,102231.53
2022-12-08T03:00:25.679Z,102219.00
2022-12-08T03:03:24.901Z,102247.44
2022-12-08T03:06:26.587Z,102214.94
2022-12-08T03:09:04.492Z,102243.69
2022-12-08T03:11:45.077Z,102247.28
2022-12-08T03:14:17.393Z,102195.78
2022-12-08T03:16:51.907Z,102227.63
2022-12-08T03:19:27.824Z,102211.88
2022-12-08T03:22:03.696Z,102218.31
2022-12-08T03:24:36.732Z,102238.91
2022-12-08T03:27:21.448Z,102137.38
2022-12-08T03:29:52.872Z,102229.25
2022-12-08T03:32:27.383Z,102245.31
2022-12-08T03:34:58.753Z,102239.78
2022-12-08T03:37:29.075Z,102229.75
2022-12-08T03:39:58.485Z,102211.88
2022-12-08T03:42:26.994Z,102214.41
2022-12-08T03:44:55.546Z,102209.59
2022-12-08T03:47:24.096Z,102209.44
2022-12-08T03:49:52.616Z,102211.22
2022-12-08T03:52:21.037Z,102122.94
2022-12-08T03:54:49.847Z,102233.72
2022-12-08T03:57:18.372Z,102188.34
2022-12-08T03:59:46.974Z,102233.72
2022-12-08T04:02:17.973Z,102226.91
2022-12-08T04:04:46.584Z,102130.06
2022-12-08T04:07:15.053Z,102197.81
2022-12-08T04:09:43.604Z,102219.06
2022-12-08T04:12:12.222Z,102201.53
2022-12-08T04:14:40.738Z,102181.69
2022-12-08T04:17:09.284Z,102190.25
2022-12-08T04:19:37.794Z,102215.97
2022-12-08T04:22:06.266Z,102182.03
2022-12-08T04:24:34.802Z,102206.88
2022-12-08T04:27:03.504Z,102209.38
2022-12-08T04:29:32.216Z,102101.28
2022-12-08T04:32:00.975Z,102179.84
2022-12-08T04:34:29.544Z,102212.72
2022-12-08T04:36:58.056Z,102201.13
2022-12-08T04:39:26.737Z,102183.94
2022-12-08T04:41:55.189Z,102194.28
2022-12-08T04:44:23.795Z,102110.13
2022-12-08T04:46:52.201Z,102188.53
2022-12-08T04:49:20.915Z,102205.63
2022-12-08T04:51:49.725Z,102211.91
2022-12-08T04:54:18.257Z,102211.50
2022-12-08T04:56:46.796Z,102211.28
2022-12-08T04:59:15.440Z,102196.66
2022-12-08T05:01:44.228Z,102178.59
2022-12-08T05:04:15.443Z,102148.56
2022-12-08T05:06:43.935Z,102209.63
2022-12-08T05:09:12.934Z,102103.38
2022-12-08T05:11:48.379Z,102219.28
2022-12-08T05:14:19.725Z,102187.25
2022-12-08T05:16:48.653Z,102193.28
2022-12-08T05:19:20.448Z,102206.88
2022-12-08T05:21:48.917Z,102158.25
2022-12-08T05:24:17.460Z,102193.22
2022-12-08T05:26:45.982Z,102101.06
2022-12-08T05:29:14.507Z,102188.22
2022-12-08T05:31:43.314Z,102192.44
2022-12-08T05:34:12.098Z,102164.91
2022-12-08T05:36:40.955Z,102180.94
2022-12-08T05:39:13.118Z,102198.94
2022-12-08T05:41:42.254Z,102177.06
2022-12-08T05:44:10.936Z,102180.91
2022-12-08T05:46:39.508Z,102177.28
2022-12-08T05:49:08.196Z,102159.72
2022-12-08T05:51:36.754Z,102175.28
2022-12-08T05:54:05.404Z,102091.22
2022-12-08T05:56:33.983Z,102092.38
2022-12-08T05:59:02.643Z,102159.59
2022-12-08T06:01:32.716Z,102131.28
2022-12-08T06:04:03.955Z,102145.66
2022-12-08T06:06:35.010Z,102134.16
2022-12-08T06:09:05.968Z,102172.59
2022-12-08T06:11:34.777Z,102160.75
2022-12-08T06:14:04.077Z,102133.69
2022-12-08T06:16:32.958Z,102178.38
2022-12-08T06:19:01.392Z,102157.03
2022-12-08T06:21:32.335Z,102138.53
2022-12-08T06:24:01.046Z,102158.06
2022-12-08T06:26:29.649Z,102136.84
2022-12-08T06:28:58.330Z,102142.13
2022-12-08T06:31:27.758Z,102166.75
2022-12-08T06:33:56.696Z,102163.09
2022-12-08T06:36:28.999Z,102120.53
2022-12-08T06:38:57.946Z,102140.88
2022-12-08T06:41:27.544Z,102138.69
2022-12-08T06:43:59.434Z,102170.22
2022-12-08T06:46:28.195Z,102133.66
2022-12-08T06:48:56.698Z,102143.53
2022-12-08T06:51:25.315Z,102162.88
2022-12-08T06:53:53.919Z,102155.47
2022-12-08T06:56:24.798Z,102159.00
2022-12-08T06:58:53.396Z,102131.13
2022-12-08T07:01:22.459Z,102136.22
2022-12-08T07:03:51.152Z,102134.25
2022-12-08T07:06:24.099Z,102162.53
2022-12-08T07:08:53.248Z,102139.56
2022-12-08T07:11:22.697Z,102146.00
2022-12-08T07:13:51.716Z,102128.50
2022-12-08T07:16:20.590Z,102097.66
2022-12-08T07:18:49.341Z,102108.09
2022-12-08T07:21:18.679Z,102048.72
2022-12-08T07:23:56.029Z,102125.47
2022-12-08T07:26:27.561Z,102142.25
2022-12-08T07:28:56.275Z,102144.06
2022-12-08T07:31:26.776Z,102139.34
2022-12-08T07:33:57.045Z,102108.47
2022-12-08T07:36:26.308Z,102115.75
2022-12-08T07:38:55.254Z,102039.81
2022-12-08T07:41:26.386Z,102131.69
2022-12-08T07:43:55.257Z,102112.53
2022-12-08T07:46:25.710Z,102106.47
2022-12-08T07:48:55.893Z,102129.31
2022-12-08T07:51:25.647Z,102092.50
2022-12-08T07:53:55.355Z,102063.56
2022-12-08T07:56:24.617Z,102120.72
2022-12-08T07:58:53.521Z,102112.09
2022-12-08T08:01:29.558Z,102132.44
2022-12-08T08:04:05.001Z,102091.19
2022-12-08T08:06:35.098Z,102099.97
2022-12-08T08:09:03.657Z,102092.09
2022-12-08T08:11:32.443Z,102087.50
2022-12-08T08:14:00.973Z,102095.34
2022-12-08T08:16:33.646Z,102027.69
2022-12-08T08:19:06.739Z,102106.50
2022-12-08T08:21:50.489Z,102104.09
2022-12-08T08:24:21.159Z,102124.13
2022-12-08T08:26:49.595Z,102086.00
2022-12-08T08:29:19.046Z,102075.91
2022-12-08T08:31:48.519Z,102092.22
2022-12-08T08:34:18.238Z,102104.72
2022-12-08T08:36:48.034Z,102103.81
2022-12-08T08:39:17.478Z,102081.41
2022-12-08T08:41:46.941Z,102085.84
2022-12-08T08:44:16.075Z,101906.28
2022-12-08T08:46:44.807Z,102060.31
2022-12-08T08:49:15.759Z,102012.69
2022-12-08T08:51:45.333Z,102069.66
2022-12-08T08:54:14.887Z,102076.78
2022-12-08T08:56:43.949Z,102102.00
2022-12-08T08:59:13.426Z,102083.31
2022-12-08T09:01:42.168Z,102093.13
2022-12-08T09:04:11.980Z,102072.66
2022-12-08T09:06:40.691Z,102092.53
2022-12-08T09:09:10.154Z,102060.78
2022-12-08T09:11:39.716Z,102088.09
2022-12-08T09:14:08.234Z,102069.38
2022-12-08T09:16:41.970Z,102041.78
2022-12-08T09:19:11.893Z,102061.34
2022-12-08T09:21:41.183Z,102042.66
2022-12-08T09:24:16.176Z,102046.09
2022-12-08T09:26:47.618Z,102079.75
2022-12-08T09:29:16.018Z,102046.53
2022-12-08T09:31:45.046Z,102036.13
2022-12-08T09:34:14.120Z,102053.47
2022-12-08T09:36:43.027Z,102067.00
2022-12-08T09:39:11.785Z,102055.88
2022-12-08T09:41:50.796Z,102015.97
2022-12-08T09:44:25.758Z,102055.13
2022-12-08T09:46:56.268Z,102041.91
2022-12-08T09:49:37.821Z,102035.06
2022-12-08T09:52:14.011Z,102051.41
2022-12-08T09:54:43.139Z,102020.69
2022-12-08T09:57:16.656Z,102036.41
2022-12-08T09:59:52.315Z,102047.22
2022-12-08T10:02:30.796Z,102012.66
2022-12-08T10:05:00.660Z,102043.53
2022-12-08T10:08:04.464Z,102035.66
2022-12-08T10:10:55.097Z,102030.19
2022-12-08T10:13:29.055Z,102032.22
2022-12-08T10:16:29.848Z,102008.78
2022-12-08T10:19:23.761Z,102022.53
2022-12-08T10:22:00.420Z,102022.38
2022-12-08T10:24:51.306Z,101995.06
2022-12-08T10:27:23.195Z,102001.72
2022-12-08T10:29:51.686Z,102028.53
2022-12-08T10:32:24.240Z,101997.94
2022-12-08T10:35:03.283Z,102008.19
2022-12-08T10:37:32.117Z,102018.97
2022-12-08T10:40:04.030Z,102028.72
2022-12-08T10:42:44.058Z,102000.28
2022-12-08T10:45:27.354Z,102026.22
2022-12-08T10:48:01.033Z,102004.25
2022-12-08T10:50:36.790Z,102041.59
2022-12-08T10:53:08.375Z,102037.44
2022-12-08T10:55:49.205Z,101981.34
2022-12-08T10:58:41.436Z,102008.09
2022-12-08T11:01:19.524Z,102031.66
2022-12-08T11:03:55.081Z,102012.66
2022-12-08T11:06:30.195Z,102033.84
2022-12-08T11:09:02.892Z,101984.50
2022-12-08T11:12:07.983Z,102014.63
2022-12-08T11:14:52.327Z,102018.16
2022-12-08T11:17:23.548Z,102033.69
2022-12-08T11:20:05.962Z,102033.53
2022-12-08T11:22:43.188Z,102042.72
2022-12-08T11:25:23.515Z,101984.41
2022-12-08T11:28:02.418Z,101996.09
2022-12-08T11:30:37.124Z,102002.50
2022-12-08T11:33:29.020Z,101914.97
2022-12-08T11:36:08.815Z,102015.53
2022-12-08T11:38:43.551Z,101910.22
2022-12-08T11:41:18.104Z,101990.88
2022-12-08T11:44:02.867Z,101989.38
2022-12-08T11:46:57.615Z,101905.78
2022-12-08T11:49:57.461Z,102001.94
2022-12-08T11:52:33.592Z,101992.38
2022-12-08T11:55:39.007Z,101992.38
2022-12-08T11:58:24.855Z,101969.63
2022-12-08T12:00:53.680Z,101991.25
2022-12-08T12:03:39.538Z,101989.50
2022-12-08T12:06:30.821Z,101991.84
2022-12-08T12:09:39.046Z,101983.97
2022-12-08T12:12:20.029Z,101973.63
2022-12-08T12:15:25.434Z,101977.47
2022-12-08T12:17:58.317Z,101980.56
2022-12-08T12:20:48.636Z,101971.06
2022-12-08T12:23:49.462Z,101983.47
2022-12-08T12:26:32.284Z,101935.06
2022-12-08T12:29:15.784Z,101975.28
2022-12-08T12:31:51.272Z,101972.03
2022-12-08T12:34:26.660Z,101984.25
2022-12-08T12:37:00.003Z,101969.78
2022-12-08T12:39:31.624Z,101956.09
2022-12-08T12:42:02.962Z,101942.34
2022-12-08T12:44:33.729Z,101977.78
2022-12-08T12:47:06.301Z,101974.22
2022-12-08T12:49:45.366Z,101973.03
2022-12-08T12:52:21.268Z,101970.34
2022-12-08T12:54:54.629Z,101979.69
2022-12-08T12:57:26.576Z,101936.91
2022-12-08T13:00:05.169Z,101984.53
2022-12-08T13:02:55.454Z,101985.44
2022-12-08T13:05:46.777Z,101931.16
2022-12-08T13:08:27.085Z,101947.34
2022-12-08T13:11:11.934Z,101975.84
2022-12-08T13:14:03.237Z,101947.19
2022-12-08T13:16:41.449Z,101935.59
2022-12-08T13:19:17.625Z,101977.72
2022-12-08T13:21:46.295Z,101964.34
2022-12-08T13:24:35.943Z,101966.13
2022-12-08T13:27:04.826Z,101958.53
2022-12-08T13:29:38.818Z,101953.34
2022-12-08T13:32:13.068Z,101958.28
2022-12-08T13:34:55.780Z,101891.75
2022-12-08T13:37:54.585Z,101925.56
2022-12-08T13:40:41.714Z,101931.97
2022-12-08T13:43:44.662Z,101902.50
2022-12-08T13:51:15.941Z,101945.09
2022-12-08T13:58:45.721Z,101935.94
2022-12-08T14:01:31.709Z,101789.56
2022-12-08T14:04:37.632Z,101915.13
2022-12-08T14:07:01.741Z,101890.66
2022-12-08T14:09:34.764Z,101928.25
2022-12-08T14:12:08.065Z,101902.25
2022-12-08T14:15:05.296Z,101926.53
2022-12-08T14:17:35.049Z,101889.06
2022-12-08T14:20:30.927Z,101894.97
2022-12-08T14:23:00.531Z,101886.38
2022-12-08T14:25:30.581Z,101897.66
2022-12-08T14:28:05.506Z,101898.72
2022-12-08T14:30:38.096Z,101906.78
2022-12-08T14:33:13.872Z,101882.94
2022-12-08T14:35:42.617Z,101913.75
2022-12-08T14:38:17.314Z,101909.47
2022-12-08T14:40:47.259Z,101890.28
2022-12-08T14:43:21.696Z,101893.88
2022-12-08T14:45:52.416Z,101879.44
2022-12-08T14:48:21.280Z,101918.84
2022-12-08T14:51:02.802Z,101909.53
2022-12-08T14:53:40.371Z,101867.16
2022-12-08T14:56:16.983Z,101846.53
2022-12-08T14:58:46.600Z,101814.16
2022-12-08T15:01:19.406Z,101882.16
2022-12-08T15:03:51.478Z,101930.78
2022-12-08T15:06:24.512Z,101904.19
2022-12-08T15:08:59.301Z,101918.13
2022-12-08T15:11:33.495Z,101910.69
2022-12-08T15:14:03.222Z,101862.94
2022-12-08T15:16:40.336Z,101924.03
2022-12-08T15:19:28.622Z,101923.88
2022-12-08T15:22:00.762Z,101920.47
2022-12-08T15:24:32.224Z,101891.44
2022-12-08T15:27:01.112Z,101914.41
2022-12-08T15:29:31.493Z,101863.69
2022-12-08T15:32:02.037Z,101883.59
2022-12-08T15:34:32.353Z,101852.91
2022-12-08T15:37:00.813Z,101899.47
2022-12-08T15:39:36.631Z,101896.38
2022-12-08T15:42:12.207Z,101862.38
2022-12-08T15:44:41.712Z,101899.59
2022-12-08T15:47:19.892Z,101902.13
2022-12-08T15:49:51.546Z,101893.78
2022-12-08T15:52:22.633Z,101900.19
2022-12-08T15:54:51.576Z,101897.19
2022-12-08T15:58:04.588Z,101908.78
2022-12-08T16:00:51.293Z,101900.03
2022-12-08T16:04:19.832Z,101876.63
2022-12-08T16:09:38.920Z,101889.88
2022-12-08T16:13:26.949Z,101856.47
2022-12-08T16:18:27.564Z,101866.44
2022-12-08T16:23:45.767Z,101884.41
2022-12-08T16:26:44.151Z,101873.56
2022-12-08T16:29:07.129Z,101885.84
2022-12-08T16:31:35.948Z,101863.94
2022-12-08T16:34:08.124Z,101867.31
2022-12-08T16:36:37.623Z,101878.09
2022-12-08T16:39:06.442Z,101878.47
2022-12-08T16:41:54.256Z,101873.69
2022-12-08T16:44:23.673Z,101809.25
2022-12-08T16:46:52.150Z,101862.91
2022-12-08T16:49:20.862Z,101866.88
2022-12-08T16:51:49.591Z,101845.03
2022-12-08T16:54:18.173Z,101816.47
2022-12-08T16:56:46.807Z,101849.06
2022-12-08T16:59:15.330Z,101828.50
2022-12-08T17:01:44.180Z,101823.03
2022-12-08T17:07:01.888Z,101800.41
2022-12-08T17:09:33.015Z,101841.13
2022-12-08T17:12:04.328Z,101801.59
2022-12-08T17:14:37.023Z,101824.88
2022-12-08T17:17:06.998Z,101846.94
2022-12-08T17:19:35.991Z,101813.47
2022-12-08T17:22:05.217Z,101814.91
2022-12-08T17:24:33.978Z,101824.97
2022-12-08T17:27:07.224Z,101828.19
2022-12-08T17:29:36.280Z,101859.56
2022-12-08T17:32:05.329Z,101743.88
2022-12-08T17:34:34.628Z,101846.00
2022-12-08T17:37:03.184Z,101803.31
2022-12-08T17:39:31.860Z,101817.28
2022-12-08T17:42:00.826Z,101819.16
2022-12-08T17:44:29.520Z,101814.31
2022-12-08T17:46:58.169Z,101841.66
2022-12-08T17:49:30.350Z,101804.84
2022-12-08T17:52:00.812Z,101810.44
2022-12-08T17:54:29.882Z,101795.63
2022-12-08T17:56:59.278Z,101823.03
2022-12-08T17:59:29.337Z,101821.34
2022-12-08T18:01:58.912Z,101820.47
2022-12-08T18:04:29.016Z,101837.19
2022-12-08T18:07:01.070Z,101813.03
2022-12-08T18:09:31.833Z,101830.50
2022-12-08T18:12:00.945Z,101810.91
2022-12-08T18:14:29.456Z,101799.84
2022-12-08T18:16:58.209Z,101823.53
2022-12-08T18:19:27.091Z,101813.34
2022-12-08T18:21:55.723Z,101826.13
2022-12-08T18:24:24.880Z,101814.56
2022-12-08T18:26:53.817Z,101817.00
2022-12-08T18:29:23.572Z,101810.78
2022-12-08T18:31:52.731Z,101794.66
2022-12-08T18:34:22.090Z,101794.66
2022-12-08T18:36:50.778Z,101813.03
2022-12-08T18:39:28.337Z,101834.94
2022-12-08T18:41:58.756Z,101789.00
2022-12-08T18:44:27.201Z,101801.72
2022-12-08T18:46:55.711Z,101821.59
2022-12-08T18:49:24.411Z,101776.84
2022-12-08T18:51:53.759Z,101808.25
2022-12-08T18:54:37.206Z,101784.22
2022-12-08T18:57:12.236Z,101792.47
2022-12-08T18:59:40.812Z,101836.00
2022-12-08T19:02:11.011Z,101781.47
2022-12-08T19:04:41.453Z,101802.84
2022-12-08T19:07:12.106Z,101781.78
2022-12-08T19:09:41.174Z,101770.56
2022-12-08T19:12:09.714Z,101789.09
2022-12-08T19:14:38.728Z,101778.03
2022-12-08T19:17:07.814Z,101761.66
2022-12-08T19:19:36.954Z,101760.06
2022-12-08T19:22:06.231Z,101761.66
2022-12-08T19:24:37.343Z,101752.63
2022-12-08T19:27:06.440Z,101770.09
2022-12-08T19:29:35.348Z,101786.00
2022-12-08T19:32:05.758Z,101747.38
2022-12-08T19:34:34.822Z,101786.59
2022-12-08T19:37:03.261Z,101723.06
2022-12-08T19:39:50.175Z,101728.38
2022-12-08T19:42:39.712Z,101728.16
2022-12-08T19:45:12.837Z,101753.91
2022-12-08T19:47:44.224Z,101753.19
2022-12-08T19:50:33.946Z,101764.81
2022-12-08T19:53:03.775Z,101715.06
2022-12-08T19:55:32.978Z,101754.25
2022-12-08T19:58:02.606Z,101710.91
2022-12-08T20:00:32.743Z,101717.88
2022-12-08T20:03:02.903Z,101740.56
2022-12-08T20:05:34.268Z,101732.88
2022-12-08T20:08:03.045Z,101697.19
2022-12-08T20:10:35.433Z,101711.25
2022-12-08T20:13:22.745Z,101691.38
2022-12-08T20:15:51.417Z,101719.16
2022-12-08T20:18:20.185Z,101724.75
2022-12-08T20:20:49.312Z,101734.94
2022-12-08T20:23:18.290Z,101713.91
2022-12-08T20:25:48.539Z,101716.97
2022-12-08T20:28:17.163Z,101705.50
2022-12-08T20:30:47.753Z,101723.28
2022-12-08T20:33:18.617Z,101703.72
2022-12-08T20:35:47.908Z,101725.53
2022-12-08T20:38:16.893Z,101724.91
2022-12-08T20:40:47.809Z,101709.47
2022-12-08T20:43:16.508Z,101593.38
2022-12-08T20:45:45.233Z,101708.16
2022-12-08T20:48:13.589Z,101737.34
2022-12-08T20:50:42.289Z,101729.09
2022-12-08T20:53:10.814Z,101693.84
2022-12-08T20:55:42.434Z,101706.00
2022-12-08T20:58:11.180Z,101707.50
2022-12-08T21:00:39.933Z,101705.50
2022-12-08T21:03:09.289Z,101706.66
2022-12-08T21:05:39.503Z,101673.00
2022-12-08T21:08:08.408Z,101715.28
2022-12-08T21:10:42.220Z,101722.84
2022-12-08T21:13:12.658Z,101712.06
2022-12-08T21:15:47.192Z,101720.94
2022-12-08T21:18:17.380Z,101664.53
2022-12-08T21:20:48.208Z,101704.53
2022-12-08T21:23:17.719Z,101708.88
2022-12-08T21:25:47.963Z,101674.81
2022-12-08T21:28:16.719Z,101720.69
2022-12-08T21:30:45.298Z,101655.94
2022-12-08T21:33:13.985Z,101649.97
2022-12-08T21:35:42.800Z,101676.59
2022-12-08T21:38:11.542Z,101702.19
2022-12-08T21:40:40.298Z,101671.50
2022-12-08T21:43:09.027Z,101678.16
2022-12-08T21:45:37.451Z,101659.28
2022-12-08T21:48:11.295Z,101658.22
2022-12-08T21:50:40.572Z,101692.53
2022-12-08T21:53:09.531Z,101582.84
2022-12-08T21:55:37.953Z,101676.88
2022-12-08T21:58:06.574Z,101578.09
2022-12-08T22:00:35.258Z,101648.25
2022-12-08T22:03:07.216Z,101702.66
2022-12-08T22:05:36.911Z,101698.28
2022-12-08T22:08:05.772Z,101644.38
2022-12-08T22:10:34.890Z,101655.78
2022-12-08T22:13:03.667Z,101665.63
2022-12-08T22:15:33.492Z,101712.09
2022-12-08T22:18:02.148Z,101706.59
2022-12-08T22:20:30.832Z,101686.38
2022-12-08T22:22:59.360Z,101659.38
2022-12-08T22:25:28.058Z,101669.00
2022-12-08T22:27:56.386Z,101647.31
2022-12-08T22:30:25.109Z,101686.38
2022-12-08T22:32:53.867Z,101669.50
2022-12-08T22:35:22.711Z,101672.56
2022-12-08T22:37:51.700Z,101632.53
2022-12-08T22:40:22.576Z,101656.88
2022-12-08T22:42:51.238Z,101655.28
2022-12-08T22:45:22.347Z,101671.28
2022-12-08T22:47:51.136Z,101634.00
2022-12-08T22:50:19.674Z,101645.53
2022-12-08T22:52:48.383Z,101676.84
2022-12-08T22:55:17.144Z,101664.41
2022-12-08T22:57:45.557Z,101685.41
2022-12-08T23:00:14.314Z,101633.81
2022-12-08T23:02:43.127Z,101658.84
2022-12-08T23:05:12.906Z,101648.44
2022-12-08T23:07:41.859Z,101653.84
2022-12-08T23:10:11.911Z,101635.69
2022-12-08T23:12:40.705Z,101629.47
2022-12-08T23:15:09.523Z,101645.44
2022-12-08T23:17:38.483Z,101534.56
2022-12-08T23:20:08.181Z,101633.44
2022-12-08T23:22:37.031Z,101672.91
2022-12-08T23:25:06.375Z,101626.63
2022-12-08T23:27:35.175Z,101618.78
2022-12-08T23:30:05.658Z,101639.06
2022-12-08T23:32:34.716Z,101631.66
2022-12-08T23:35:03.504Z,101651.16
2022-12-08T23:37:32.195Z,101553.09
2022-12-08T23:40:00.923Z,101665.97
2022-12-08T23:42:32.738Z,101661.75
2022-12-08T23:45:01.389Z,101635.97
2022-12-08T23:47:30.275Z,101624.38
2022-12-08T23:49:59.021Z,101543.56
2022-12-08T23:52:27.621Z,101663.59
2022-12-08T23:54:56.592Z,101673.47
2022-12-08T23:57:25.448Z,101663.06
2022-12-08T23:59:54.043Z,101637.13
